Time;durP1;ratioP1;P1;durP2;ratioP2;P2;SDS_P1;SDS_P2;PMS_P1;PMS_P2;Temp;Humidity;BMP_temperature;BMP_pressure;BME280_temperature;BME280_humidity;BME280_pressure;Samples;Min_cycle;Max_cycle;Signal;HPM_P1;HPM_P2
2023/05/03 00:01:09;;;;;;;8.75;3.70;;;4.70;99.90;;;;;;4976992;28;20374;-87
2023/05/03 00:03:36;;;;;;;5.93;3.35;;;4.70;99.90;;;;;;5014502;28;20053;-87
2023/05/03 00:06:10;;;;;;;6.97;3.88;;;4.70;99.90;;;;;;4996335;28;20038;-87
2023/05/03 00:08:35;;;;;;;7.10;3.95;;;4.70;99.90;;;;;;4982155;28;20608;-87
2023/05/03 00:11:01;;;;;;;8.95;4.43;;;4.80;99.90;;;;;;4980515;28;20038;-88
2023/05/03 00:13:27;;;;;;;7.80;4.13;;;4.90;99.90;;;;;;4995858;28;20368;-87
2023/05/03 00:15:52;;;;;;;7.47;4.10;;;4.90;99.90;;;;;;4979638;28;20034;-88
2023/05/03 00:18:18;;;;;;;6.95;4.25;;;4.90;99.90;;;;;;4980842;28;20232;-88
2023/05/03 00:20:44;;;;;;;5.22;3.78;;;4.90;99.90;;;;;;4977217;28;20042;-88
2023/05/03 00:23:10;;;;;;;6.13;4.78;;;4.90;99.90;;;;;;4977796;28;20038;-88
2023/05/03 00:25:39;;;;;;;6.75;3.50;;;4.80;99.90;;;;;;4977894;28;20056;-87
2023/05/03 00:28:04;;;;;;;7.10;4.38;;;4.80;99.90;;;;;;4979537;28;20037;-87
2023/05/03 00:30:30;;;;;;;8.90;4.72;;;4.80;99.90;;;;;;4992534;28;20038;-87
2023/05/03 00:32:56;;;;;;;7.10;4.18;;;4.90;99.90;;;;;;4980629;28;20072;-88
2023/05/03 00:35:21;;;;;;;7.72;3.92;;;5.00;99.90;;;;;;4996335;28;20121;-87
2023/05/03 00:37:49;;;;;;;8.52;4.32;;;5.00;99.90;;;;;;4996110;28;20393;-89
2023/05/03 00:40:17;;;;;;;6.82;3.72;;;5.00;99.90;;;;;;4982925;28;20056;-87
2023/05/03 00:42:44;;;;;;;8.38;4.15;;;5.00;99.90;;;;;;4979308;28;20500;-88
2023/05/03 00:45:10;;;;;;;10.13;4.72;;;5.00;99.90;;;;;;4995321;28;20058;-88
2023/05/03 00:47:36;;;;;;;9.95;4.68;;;5.10;99.90;;;;;;4997647;28;20597;-88
2023/05/03 00:50:02;;;;;;;6.88;4.20;;;5.10;99.90;;;;;;4977725;28;20489;-88
2023/05/03 00:52:28;;;;;;;8.43;4.63;;;5.10;99.90;;;;;;4977774;28;20742;-87
2023/05/03 00:54:58;;;;;;;8.10;4.50;;;5.10;99.90;;;;;;4979910;28;20557;-88
2023/05/03 00:57:27;;;;;;;8.88;4.90;;;5.20;99.90;;;;;;4993745;28;20501;-88
2023/05/03 00:59:53;;;;;;;11.43;5.20;;;5.20;99.90;;;;;;4992939;28;20454;-87
2023/05/03 01:02:20;;;;;;;8.07;5.00;;;5.20;99.90;;;;;;4996952;28;20129;-89
2023/05/03 01:04:48;;;;;;;7.50;4.68;;;5.30;99.90;;;;;;5011327;28;20785;-88
2023/05/03 01:07:23;;;;;;;5.57;3.90;;;5.20;99.90;;;;;;4978010;28;20540;-88
2023/05/03 01:10:11;;;;;;;7.72;4.85;;;5.20;99.90;;;;;;4992798;28;20672;-87
2023/05/03 01:13:02;;;;;;;8.55;4.68;;;5.20;99.90;;;;;;4981441;28;20124;-87
2023/05/03 01:15:35;;;;;;;6.22;4.32;;;5.20;99.90;;;;;;4978207;28;20438;-88
2023/05/03 01:18:11;;;;;;;7.78;4.47;;;5.20;99.90;;;;;;4979299;28;20504;-89
2023/05/03 01:20:37;;;;;;;6.28;3.90;;;5.30;99.90;;;;;;4993558;28;20056;-88
2023/05/03 01:23:33;;;;;;;5.95;4.68;;;5.20;99.90;;;;;;4977897;28;20366;-87
2023/05/03 01:25:58;;;;;;;11.63;4.50;;;5.20;99.90;;;;;;4994651;28;20104;-88
2023/05/03 01:28:24;;;;;;;9.90;4.38;;;5.30;99.90;;;;;;4991108;28;20053;-88
2023/05/03 01:30:52;;;;;;;8.98;4.63;;;5.30;99.90;;;;;;4976381;28;20472;-87
2023/05/03 01:33:32;;;;;;;10.27;4.53;;;5.30;99.90;;;;;;4995004;28;20164;-89
2023/05/03 01:36:11;;;;;;;6.22;4.63;;;5.20;99.90;;;;;;4979138;28;20042;-88
2023/05/03 01:38:39;;;;;;;8.20;4.93;;;5.20;99.90;;;;;;5011957;28;20169;-87
2023/05/03 01:41:09;;;;;;;5.68;4.60;;;5.20;99.90;;;;;;4992757;28;20045;-87
2023/05/03 01:43:36;;;;;;;8.85;4.82;;;5.20;99.90;;;;;;4976518;28;20458;-87
2023/05/03 01:46:02;;;;;;;13.38;5.55;;;5.20;99.90;;;;;;4993522;28;20069;-89
2023/05/03 01:48:28;;;;;;;7.53;4.72;;;5.10;99.90;;;;;;4980423;28;20513;-87
2023/05/03 01:50:53;;;;;;;6.82;4.97;;;5.10;99.90;;;;;;4994023;28;20405;-89
2023/05/03 01:53:19;;;;;;;11.07;4.88;;;5.20;99.90;;;;;;5011270;28;20448;-88
2023/05/03 01:55:45;;;;;;;4.18;3.67;;;5.20;99.90;;;;;;4994259;28;20136;-88
2023/05/03 01:58:11;;;;;;;8.63;5.85;;;5.00;99.90;;;;;;5000293;28;20046;-87
2023/05/03 02:00:37;;;;;;;9.02;5.03;;;4.90;99.90;;;;;;4980160;28;20046;-88
2023/05/03 02:03:03;;;;;;;6.32;4.38;;;5.00;99.90;;;;;;5000208;28;20539;-88
2023/05/03 02:05:29;;;;;;;6.28;4.40;;;5.00;99.90;;;;;;4987131;28;20494;-89
2023/05/03 02:07:54;;;;;;;8.00;4.63;;;4.90;99.90;;;;;;4983186;28;20223;-89
2023/05/03 02:10:20;;;;;;;4.28;3.63;;;4.90;99.90;;;;;;4999754;28;20061;-88
2023/05/03 02:12:46;;;;;;;7.30;4.25;;;4.70;99.90;;;;;;4983934;28;20376;-88
2023/05/03 02:15:12;;;;;;;9.27;4.82;;;4.60;99.90;;;;;;4998280;28;20049;-88
2023/05/03 02:17:39;;;;;;;7.22;4.88;;;4.50;99.90;;;;;;4997265;28;20045;-88
2023/05/03 02:20:05;;;;;;;11.55;5.63;;;4.50;99.90;;;;;;4982747;28;20441;-88
2023/05/03 02:22:32;;;;;;;7.93;4.57;;;4.50;99.90;;;;;;4995262;28;20030;-89
2023/05/03 02:24:58;;;;;;;6.60;4.28;;;4.60;99.90;;;;;;4998352;28;20121;-88
2023/05/03 02:27:24;;;;;;;8.00;5.43;;;4.60;99.90;;;;;;4987277;28;20481;-88
2023/05/03 02:29:51;;;;;;;10.77;5.53;;;4.50;99.90;;;;;;4984598;28;20038;-88
2023/05/03 02:32:17;;;;;;;7.65;5.00;;;4.50;99.90;;;;;;4998451;28;20054;-88
2023/05/03 02:34:46;;;;;;;10.07;5.85;;;4.40;99.90;;;;;;4984130;28;20703;-88
2023/05/03 02:37:11;;;;;;;7.60;5.45;;;4.40;99.90;;;;;;4981268;28;20037;-87
2023/05/03 02:39:37;;;;;;;9.30;5.20;;;4.30;99.90;;;;;;4996730;28;20405;-89
2023/05/03 02:42:03;;;;;;;8.27;5.22;;;4.40;99.90;;;;;;5001162;28;20502;-89
2023/05/03 02:44:29;;;;;;;9.25;5.47;;;4.30;99.90;;;;;;5000362;28;20053;-88
2023/05/03 02:46:57;;;;;;;11.27;5.60;;;4.20;99.90;;;;;;4982428;28;20044;-89
2023/05/03 02:49:23;;;;;;;9.40;5.00;;;4.30;99.90;;;;;;4998375;28;20153;-89
2023/05/03 02:51:49;;;;;;;8.63;5.30;;;4.20;99.90;;;;;;4981588;28;20137;-88
2023/05/03 02:54:14;;;;;;;7.90;5.20;;;4.20;99.90;;;;;;4996176;28;20066;-88
2023/05/03 02:56:40;;;;;;;8.98;5.05;;;4.20;99.90;;;;;;5002306;28;20444;-89
2023/05/03 02:59:06;;;;;;;8.52;5.30;;;4.10;99.90;;;;;;4983721;28;20046;-90
2023/05/03 03:01:38;;;;;;;7.32;5.05;;;4.10;99.90;;;;;;4983493;28;20037;-88
2023/05/03 03:04:05;;;;;;;11.13;5.70;;;4.10;99.90;;;;;;4980181;28;20037;-88
2023/05/03 03:06:30;;;;;;;9.20;5.28;;;4.10;99.90;;;;;;4981227;28;20041;-88
2023/05/03 03:08:56;;;;;;;6.40;4.95;;;4.20;99.90;;;;;;4978907;28;20041;-88
2023/05/03 03:11:22;;;;;;;8.32;5.45;;;4.10;99.90;;;;;;4980872;28;20031;-88
2023/05/03 03:13:49;;;;;;;8.48;5.30;;;4.20;99.90;;;;;;5012589;28;20073;-89
2023/05/03 03:16:15;;;;;;;8.95;5.20;;;4.10;99.90;;;;;;4997677;28;20125;-89
2023/05/03 03:18:41;;;;;;;8.07;5.20;;;4.10;99.90;;;;;;4985956;28;20448;-87
2023/05/03 03:21:07;;;;;;;7.20;5.05;;;4.20;99.90;;;;;;4980138;28;20502;-89
2023/05/03 03:23:32;;;;;;;8.38;4.90;;;4.30;99.90;;;;;;4996916;28;20092;-89
2023/05/03 03:25:58;;;;;;;7.45;5.07;;;4.30;99.90;;;;;;4983670;28;20053;-89
2023/05/03 03:28:24;;;;;;;6.68;4.93;;;4.30;99.90;;;;;;4982972;28;20113;-88
2023/05/03 03:30:49;;;;;;;7.80;5.30;;;4.30;99.90;;;;;;4998519;28;20050;-88
2023/05/03 03:33:15;;;;;;;6.75;5.00;;;4.30;99.90;;;;;;4985833;28;20041;-88
2023/05/03 03:35:41;;;;;;;10.95;5.35;;;4.30;99.90;;;;;;4983453;28;20053;-89
2023/05/03 03:38:09;;;;;;;5.80;4.65;;;4.20;99.90;;;;;;4982296;28;20132;-88
2023/05/03 03:40:35;;;;;;;10.77;5.47;;;4.30;99.90;;;;;;5000192;28;20042;-89
2023/05/03 03:43:01;;;;;;;6.35;5.15;;;4.30;99.90;;;;;;4982619;28;20034;-89
2023/05/03 03:45:26;;;;;;;6.40;4.82;;;4.40;99.90;;;;;;4998290;28;20067;-90
2023/05/03 03:47:52;;;;;;;10.43;5.10;;;4.30;99.90;;;;;;4999551;28;20085;-88
2023/05/03 03:50:18;;;;;;;8.27;4.65;;;4.30;99.90;;;;;;4980919;28;20410;-89
2023/05/03 03:52:43;;;;;;;8.13;5.28;;;4.40;99.90;;;;;;5000435;28;20045;-88
2023/05/03 03:55:10;;;;;;;8.35;5.68;;;4.50;99.90;;;;;;5015180;28;20390;-88
2023/05/03 03:57:36;;;;;;;13.25;5.20;;;4.40;99.90;;;;;;4983521;28;20592;-89
2023/05/03 04:00:09;;;;;;;7.53;5.35;;;4.40;99.90;;;;;;4985854;28;20077;-89
2023/05/03 04:02:35;;;;;;;5.95;4.60;;;4.40;99.90;;;;;;4984245;28;20045;-88
2023/05/03 04:05:00;;;;;;;6.40;4.55;;;4.40;99.90;;;;;;4985775;28;20030;-89
2023/05/03 04:07:29;;;;;;;8.35;4.90;;;4.50;99.90;;;;;;4998795;28;20048;-88
2023/05/03 04:09:55;;;;;;;6.95;4.55;;;4.50;99.90;;;;;;4996417;28;20045;-89
2023/05/03 04:12:23;;;;;;;6.55;5.10;;;4.50;99.90;;;;;;4983601;28;20068;-89
2023/05/03 04:14:50;;;;;;;7.20;5.00;;;4.40;99.90;;;;;;5013030;28;20066;-87
2023/05/03 04:17:16;;;;;;;6.80;4.95;;;4.40;99.90;;;;;;4999017;28;20041;-89
2023/05/03 04:19:42;;;;;;;6.95;4.45;;;4.40;99.90;;;;;;4979656;28;20039;-89
2023/05/03 04:22:08;;;;;;;7.18;5.25;;;4.40;99.90;;;;;;4997791;28;20473;-88
2023/05/03 04:24:40;;;;;;;7.50;4.80;;;4.40;99.90;;;;;;4979873;28;20069;-89
2023/05/03 04:27:07;;;;;;;6.90;5.40;;;4.50;99.90;;;;;;4984796;28;20037;-88
2023/05/03 04:29:33;;;;;;;6.90;4.68;;;4.50;99.90;;;;;;4981004;28;20034;-88
2023/05/03 04:32:01;;;;;;;10.50;5.30;;;4.50;99.90;;;;;;4998500;28;20076;-88
2023/05/03 04:34:29;;;;;;;8.10;5.68;;;4.50;99.90;;;;;;4996623;28;20069;-89
2023/05/03 04:36:55;;;;;;;10.02;5.50;;;4.60;99.90;;;;;;4996795;28;20037;-87
2023/05/03 04:39:22;;;;;;;7.88;5.43;;;4.60;99.90;;;;;;4984233;28;20049;-90
2023/05/03 04:41:48;;;;;;;8.52;5.25;;;4.60;99.90;;;;;;4982465;28;20030;-88
2023/05/03 04:44:15;;;;;;;7.80;4.70;;;4.60;99.90;;;;;;4981854;28;20041;-89
2023/05/03 04:46:42;;;;;;;7.28;4.82;;;4.80;99.90;;;;;;4993980;28;20128;-89
2023/05/03 04:49:08;;;;;;;6.57;4.72;;;4.80;99.90;;;;;;4983558;28;20044;-89
2023/05/03 04:51:36;;;;;;;7.97;5.32;;;4.80;99.90;;;;;;4980031;28;20042;-89
2023/05/03 04:54:02;;;;;;;7.68;4.82;;;4.90;99.90;;;;;;4980293;28;20085;-88
2023/05/03 04:56:28;;;;;;;5.93;4.78;;;5.00;99.90;;;;;;4981717;28;20041;-89
2023/05/03 04:58:57;;;;;;;7.45;5.07;;;5.10;99.90;;;;;;4998546;28;20109;-88
2023/05/03 05:01:26;;;;;;;7.70;5.00;;;5.20;99.90;;;;;;4984382;28;20261;-89
2023/05/03 05:03:54;;;;;;;6.90;4.80;;;5.30;99.90;;;;;;4982318;28;20148;-89
2023/05/03 05:06:19;;;;;;;7.07;5.18;;;5.40;99.90;;;;;;4997125;28;20037;-88
2023/05/03 05:08:45;;;;;;;8.18;4.78;;;5.40;99.90;;;;;;4979627;28;20041;-89
2023/05/03 05:11:13;;;;;;;6.22;4.05;;;5.50;99.90;;;;;;4981611;28;20049;-89
2023/05/03 05:13:41;;;;;;;11.13;4.60;;;5.50;99.90;;;;;;4982332;28;20068;-88
2023/05/03 05:16:07;;;;;;;9.80;4.47;;;5.70;99.90;;;;;;4995995;28;20408;-88
2023/05/03 05:18:33;;;;;;;8.43;4.65;;;5.80;99.90;;;;;;4980643;28;20045;-88
2023/05/03 05:20:59;;;;;;;5.95;4.50;;;5.90;99.90;;;;;;4979127;28;20045;-88
2023/05/03 05:23:28;;;;;;;6.78;4.10;;;6.10;99.90;;;;;;4998261;28;20188;-88
2023/05/03 05:25:59;;;;;;;5.95;4.60;;;6.00;99.90;;;;;;4977595;28;20034;-89
2023/05/03 05:28:25;;;;;;;5.85;3.92;;;6.10;99.90;;;;;;4980373;28;20050;-88
2023/05/03 05:30:51;;;;;;;6.00;3.83;;;6.20;99.90;;;;;;4994511;28;20488;-89
2023/05/03 05:33:17;;;;;;;7.30;4.22;;;6.30;99.90;;;;;;4998632;28;20172;-88
2023/05/03 05:35:47;;;;;;;7.90;4.90;;;6.40;99.90;;;;;;4985465;28;20124;-87
2023/05/03 05:38:14;;;;;;;7.15;4.28;;;6.50;99.90;;;;;;5000661;28;20046;-88
2023/05/03 05:40:40;;;;;;;7.70;3.88;;;6.60;99.90;;;;;;4997179;28;20046;-89
2023/05/03 05:43:05;;;;;;;4.40;3.45;;;6.70;99.90;;;;;;5000014;28;20038;-89
2023/05/03 05:45:33;;;;;;;5.72;4.22;;;6.80;99.90;;;;;;4985461;28;20516;-88
2023/05/03 05:48:03;;;;;;;6.25;3.72;;;6.90;99.90;;;;;;4984554;28;20057;-88
2023/05/03 05:50:30;;;;;;;5.85;3.90;;;7.00;99.90;;;;;;4982696;28;20037;-88
2023/05/03 05:52:55;;;;;;;5.13;4.00;;;7.00;99.90;;;;;;4986439;28;20045;-89
2023/05/03 05:55:21;;;;;;;6.50;4.32;;;7.20;99.90;;;;;;5000404;28;20048;-88
2023/05/03 05:57:47;;;;;;;7.65;4.28;;;7.20;99.90;;;;;;4982897;28;20084;-87
2023/05/03 06:00:13;;;;;;;6.88;4.00;;;7.30;99.90;;;;;;4997256;28;21429;-89
2023/05/03 06:02:46;;;;;;;6.85;3.67;;;7.40;99.90;;;;;;4983047;28;20578;-88
2023/05/03 06:05:12;;;;;;;6.25;3.90;;;7.50;99.90;;;;;;4999820;28;20121;-88
2023/05/03 06:07:38;;;;;;;5.03;3.28;;;7.60;99.90;;;;;;5013889;28;20060;-89
2023/05/03 06:10:04;;;;;;;4.55;3.20;;;7.50;99.90;;;;;;4997631;28;20049;-88
2023/05/03 06:12:29;;;;;;;5.13;3.38;;;7.60;99.90;;;;;;4983902;28;20455;-87
2023/05/03 06:14:55;;;;;;;6.38;3.03;;;7.70;99.90;;;;;;4984234;28;20081;-88
2023/05/03 06:17:22;;;;;;;6.68;2.90;;;7.90;99.90;;;;;;4998967;28;20054;-87
2023/05/03 06:19:48;;;;;;;3.15;2.72;;;7.90;99.90;;;;;;4996374;28;20445;-87
2023/05/03 06:22:14;;;;;;;5.80;2.63;;;8.00;99.90;;;;;;4980096;28;20049;-88
2023/05/03 06:24:40;;;;;;;5.32;2.70;;;8.00;99.90;;;;;;4997624;28;20038;-87
2023/05/03 06:27:06;;;;;;;5.43;2.67;;;8.10;99.90;;;;;;4980694;28;20048;-88
2023/05/03 06:29:32;;;;;;;3.70;2.58;;;8.20;99.90;;;;;;4981908;28;20037;-87
2023/05/03 06:31:57;;;;;;;6.38;2.60;;;8.20;99.90;;;;;;4984324;28;20512;-87
2023/05/03 06:34:24;;;;;;;3.10;2.10;;;8.20;99.90;;;;;;4983487;28;20045;-88
2023/05/03 06:36:50;;;;;;;7.63;2.80;;;8.20;99.90;;;;;;4983691;28;20042;-88
2023/05/03 06:39:16;;;;;;;3.40;2.13;;;8.40;99.90;;;;;;4980922;28;20048;-88
2023/05/03 06:41:43;;;;;;;5.82;2.78;;;8.40;99.90;;;;;;4997950;28;20081;-88
2023/05/03 06:44:09;;;;;;;3.38;2.10;;;8.50;99.90;;;;;;4980721;28;20127;-88
2023/05/03 06:46:53;;;;;;;3.75;2.10;;;8.60;99.90;;;;;;4984193;28;20038;-88
2023/05/03 06:49:21;;;;;;;3.75;2.17;;;8.70;94.90;;;;;;4997853;28;20130;-88
2023/05/03 06:51:46;;;;;;;1.77;1.33;;;8.80;99.90;;;;;;4982903;28;20040;-88
2023/05/03 06:54:14;;;;;;;3.60;1.63;;;8.90;99.90;;;;;;4985144;28;20038;-88
2023/05/03 06:56:40;;;;;;;4.80;1.42;;;9.00;1.00;;;;;;4980320;28;20450;-88
2023/05/03 06:59:07;;;;;;;2.72;1.23;;;9.00;99.90;;;;;;4980374;28;20044;-89
2023/05/03 07:01:33;;;;;;;4.97;2.03;;;8.90;99.90;;;;;;4997130;28;20037;-88
2023/05/03 07:03:59;;;;;;;6.65;1.60;;;8.90;99.90;;;;;;4998280;28;20049;-87
2023/05/03 07:06:25;;;;;;;3.15;1.40;;;9.10;21.20;;;;;;4998382;28;20034;-88
2023/05/03 07:08:52;;;;;;;3.80;1.38;;;9.10;99.90;;;;;;4996703;28;20038;-88
2023/05/03 07:11:24;;;;;;;3.42;1.30;;;8.90;99.90;;;;;;4996813;28;20097;-88
2023/05/03 07:13:52;;;;;;;3.33;1.50;;;9.00;98.60;;;;;;4998324;28;20058;-89
2023/05/03 07:16:39;;;;;;;2.53;1.40;;;9.10;72.70;;;;;;4980511;28;20048;-88
2023/05/03 07:19:05;;;;;;;5.22;1.40;;;9.10;1.00;;;;;;4997677;28;20156;-88
2023/05/03 07:21:32;;;;;;;3.28;1.20;;;9.20;58.30;;;;;;5013631;28;20073;-88
2023/05/03 07:24:01;;;;;;;2.00;1.30;;;9.40;99.90;;;;;;4982377;28;20393;-89
2023/05/03 07:26:26;;;;;;;3.15;1.30;;;9.80;99.90;;;;;;4979020;28;20818;-88
2023/05/03 07:28:52;;;;;;;4.20;1.35;;;10.20;99.90;;;;;;4982654;28;20049;-88
2023/05/03 07:31:21;;;;;;;1.58;1.10;;;10.80;99.90;;;;;;4995844;28;20441;-88
2023/05/03 07:33:51;;;;;;;2.45;1.23;;;10.80;99.90;;;;;;4995416;28;20074;-88
2023/05/03 07:36:19;;;;;;;3.75;1.35;;;10.90;28.90;;;;;;4998713;28;20414;-88
2023/05/03 07:38:45;;;;;;;2.05;1.17;;;10.80;1.00;;;;;;4980743;28;20045;-89
2023/05/03 07:41:11;;;;;;;2.75;1.23;;;10.70;99.90;;;;;;4979042;28;20433;-88
2023/05/03 07:43:36;;;;;;;2.65;1.25;;;11.00;99.90;;;;;;4996823;28;20123;-87
2023/05/03 07:46:02;;;;;;;5.90;1.40;;;11.10;99.90;;;;;;4996010;28;20036;-89
2023/05/03 07:48:28;;;;;;;4.40;1.10;;;11.30;99.90;;;;;;4980111;28;20469;-88
2023/05/03 07:50:53;;;;;;;2.83;1.45;;;11.30;99.90;;;;;;4997170;28;20572;-89
2023/05/03 07:53:19;;;;;;;2.72;1.60;;;11.30;99.90;;;;;;4992423;28;20505;-88
2023/05/03 07:55:45;;;;;;;3.10;1.40;;;11.10;99.90;;;;;;4980090;28;20050;-87
2023/05/03 07:58:11;;;;;;;1.60;1.10;;;11.20;99.90;;;;;;4993853;28;20406;-89
2023/05/03 08:00:36;;;;;;;3.58;1.30;;;11.00;49.90;;;;;;4995197;28;20073;-89
2023/05/03 08:03:03;;;;;;;3.65;1.38;;;11.30;72.60;;;;;;4984290;28;20637;-89
2023/05/03 08:05:29;;;;;;;2.45;1.13;;;11.50;99.90;;;;;;4995819;28;20107;-88
2023/05/03 08:07:55;;;;;;;3.40;1.10;;;11.50;67.90;;;;;;4977149;28;20117;-88
2023/05/03 08:10:21;;;;;;;3.30;1.23;;;11.50;1.00;;;;;;4978992;28;20042;-89
2023/05/03 08:12:50;;;;;;;3.47;1.25;;;11.50;1.00;;;;;;4995229;28;20444;-88
2023/05/03 08:15:15;;;;;;;1.92;1.00;;;11.10;99.90;;;;;;4982375;28;20108;-88
2023/05/03 08:17:44;;;;;;;5.35;2.28;;;11.50;1.00;;;;;;4994666;28;20065;-88
2023/05/03 08:20:10;;;;;;;2.20;1.30;;;11.90;99.90;;;;;;4980994;28;20085;-88
2023/05/03 08:22:37;;;;;;;3.28;1.40;;;12.00;39.30;;;;;;4981969;28;20117;-88
2023/05/03 08:25:06;;;;;;;2.45;1.15;;;11.90;1.00;;;;;;4996380;28;20113;-88
2023/05/03 08:27:32;;;;;;;3.70;1.10;;;11.90;1.00;;;;;;4978006;28;20144;-89
2023/05/03 08:30:00;;;;;;;3.45;1.30;;;11.10;99.90;;;;;;4980427;28;20046;-89
2023/05/03 08:32:27;;;;;;;3.85;1.13;;;11.60;1.00;;;;;;4980678;28;20046;-88
2023/05/03 08:34:53;;;;;;;3.83;1.20;;;11.40;99.90;;;;;;4981035;28;20046;-89
2023/05/03 08:37:22;;;;;;;2.45;1.30;;;11.60;99.90;;;;;;4996181;28;20139;-89
2023/05/03 08:39:48;;;;;;;4.20;1.30;;;12.10;1.00;;;;;;4998080;28;20072;-88
2023/05/03 08:42:14;;;;;;;2.78;1.13;;;12.00;99.90;;;;;;4997463;28;20129;-89
2023/05/03 08:44:49;;;;;;;3.33;1.27;;;12.20;99.90;;;;;;4979039;28;20083;-89
2023/05/03 08:47:16;;;;;;;2.97;1.40;;;12.20;99.90;;;;;;4978758;28;20038;-89
2023/05/03 08:49:46;;;;;;;2.83;1.00;;;12.30;99.90;;;;;;4993303;28;20087;-88
2023/05/03 08:52:15;;;;;;;3.38;1.20;;;12.30;99.90;;;;;;4979966;28;20061;-88
2023/05/03 08:54:41;;;;;;;3.63;1.48;;;12.10;99.90;;;;;;4996889;28;20105;-88
2023/05/03 08:57:12;;;;;;;3.72;1.10;;;12.40;99.90;;;;;;4981183;28;20033;-88
2023/05/03 08:59:57;;;;;;;3.33;1.25;;;11.50;99.90;;;;;;4982307;28;20077;-87
2023/05/03 09:02:23;;;;;;;2.83;1.13;;;11.20;99.90;;;;;;4980179;28;20127;-88
2023/05/03 09:04:48;;;;;;;3.30;1.20;;;10.60;67.50;;;;;;4994415;28;20512;-89
2023/05/03 09:07:18;;;;;;;3.22;1.30;;;11.20;99.90;;;;;;4998597;28;20387;-87
2023/05/03 09:09:44;;;;;;;4.10;1.30;;;12.00;99.90;;;;;;4985588;28;20046;-88
2023/05/03 09:12:10;;;;;;;4.93;1.50;;;11.50;99.90;;;;;;4983709;28;20073;-89
2023/05/03 09:14:44;;;;;;;2.35;1.10;;;11.30;99.90;;;;;;5002037;28;20054;-88
2023/05/03 09:17:19;;;;;;;2.67;1.27;;;12.10;99.90;;;;;;4987056;28;20387;-88
2023/05/03 09:19:51;;;;;;;;;;;11.20;99.90;;;;;;5001736;28;20043;-88
2023/05/03 09:22:17;;;;;;;1.88;1.25;;;11.60;99.90;;;;;;4990925;28;19921;-88
2023/05/03 09:24:51;;;;;;;3.17;1.60;;;11.60;99.90;;;;;;5003155;28;20046;-87
2023/05/03 09:27:20;;;;;;;4.93;1.75;;;11.50;99.90;;;;;;4987553;28;20045;-88
2023/05/03 09:29:46;;;;;;;2.80;1.50;;;12.10;99.90;;;;;;4989430;28;20041;-88
2023/05/03 09:32:12;;;;;;;3.45;1.50;;;11.80;99.90;;;;;;4990147;28;20497;-88
2023/05/03 09:34:37;;;;;;;4.30;1.52;;;11.30;99.90;;;;;;5001148;28;20123;-88
2023/05/03 09:37:04;;;;;;;2.08;1.30;;;11.00;29.20;;;;;;4998015;28;20087;-87
2023/05/03 09:39:32;;;;;;;1.92;1.55;;;11.10;99.90;;;;;;4990217;28;20057;-87
2023/05/03 09:41:59;;;;;;;4.00;1.95;;;11.30;99.90;;;;;;4986834;28;20037;-88
2023/05/03 09:44:50;;;;;;;2.30;1.50;;;12.10;99.90;;;;;;4987971;28;20122;-88
2023/05/03 09:47:17;;;;;;;5.72;1.60;;;13.00;99.90;;;;;;4985461;28;20038;-89
2023/05/03 09:49:43;;;;;;;3.78;1.65;;;13.50;99.90;;;;;;4985781;28;20124;-88
2023/05/03 09:52:09;;;;;;;3.28;1.65;;;14.30;99.90;;;;;;4987465;28;20137;-89
2023/05/03 09:54:36;;;;;;;3.28;1.60;;;15.10;99.90;;;;;;4984631;28;20080;-89
2023/05/03 09:57:06;;;;;;;3.08;2.20;;;15.20;99.90;;;;;;4985899;28;20085;-88
2023/05/03 09:59:36;;;;;;;3.28;1.88;;;15.50;99.90;;;;;;4986831;28;20045;-88
2023/05/03 10:02:06;;;;;;;4.32;1.65;;;14.80;1.00;;;;;;4987387;28;20401;-87
2023/05/03 10:04:46;;;;;;;4.57;1.85;;;15.30;97.50;;;;;;4987703;28;20228;-88
2023/05/03 10:07:17;;;;;;;4.75;1.65;;;15.30;71.20;;;;;;4999388;28;20565;-89
2023/05/03 10:09:44;;;;;;;6.25;1.90;;;15.50;3.60;;;;;;4986548;28;20273;-87
2023/05/03 10:12:11;;;;;;;2.78;1.83;;;15.60;48.90;;;;;;4986846;28;20042;-88
2023/05/03 10:14:42;;;;;;;6.45;2.10;;;14.00;1.00;;;;;;5000963;28;20058;-88
2023/05/03 10:17:25;;;;;;;3.13;2.10;;;14.30;1.00;;;;;;4988437;28;20033;-88
2023/05/03 10:20:28;;;;;;;4.55;2.00;;;14.30;1.00;;;;;;5000358;28;20034;-88
2023/05/03 10:23:13;;;;;;;2.35;1.73;;;14.40;1.00;;;;;;4980311;28;20125;-88
2023/05/03 10:25:59;;;;;;;;;;;14.30;1.00;;;;;;4982178;28;20078;-87
2023/05/03 10:28:24;;;;;;;4.07;2.33;;;14.80;1.00;;;;;;4983914;28;19925;-88
2023/05/03 10:30:50;;;;;;;5.40;2.20;;;14.60;1.00;;;;;;4997191;28;20048;-87
2023/05/03 10:33:16;;;;;;;3.80;2.00;;;14.50;1.00;;;;;;4979853;28;20138;-88
2023/05/03 10:35:51;;;;;;;2.95;1.75;;;13.80;1.00;;;;;;4999450;28;20096;-88
2023/05/03 10:38:23;;;;;;;3.28;1.88;;;14.80;1.00;;;;;;4999006;28;20050;-87
2023/05/03 10:40:49;;;;;;;3.95;2.20;;;14.70;1.00;;;;;;4995391;28;20539;-88
2023/05/03 10:43:33;;;;;;;3.30;1.92;;;14.50;1.00;;;;;;4984560;28;20942;-87
2023/05/03 10:46:00;;;;;;;4.95;2.20;;;14.20;1.00;;;;;;4983567;28;20456;-87
2023/05/03 10:48:27;;;;;;;4.55;2.00;;;14.60;1.00;;;;;;4984359;28;20038;-87
2023/05/03 10:50:54;;;;;;;4.00;2.28;;;14.40;99.90;;;;;;4997030;28;20041;-87
2023/05/03 10:53:41;;;;;;;4.85;2.47;;;15.20;1.00;;;;;;4995057;28;20049;-87
2023/05/03 10:56:14;;;;;;;4.25;1.90;;;15.60;1.00;;;;;;4984715;28;20053;-87
2023/05/03 10:58:48;;;;;;;5.07;2.10;;;15.90;1.00;;;;;;4980909;28;20467;-88
2023/05/03 11:01:17;;;;;;;6.60;1.90;;;16.70;1.00;;;;;;4995904;28;20156;-88
2023/05/03 11:03:45;;;;;;;5.20;2.05;;;16.00;1.00;;;;;;5000639;28;20057;-87
2023/05/03 11:06:26;;;;;;;3.28;2.15;;;16.00;1.00;;;;;;4981453;28;20049;-88
2023/05/03 11:08:52;;;;;;;4.63;2.20;;;15.60;99.90;;;;;;4984714;28;20065;-87
2023/05/03 11:11:18;;;;;;;4.32;2.00;;;16.20;1.00;;;;;;4998289;28;20088;-88
2023/05/03 11:13:43;;;;;;;4.30;2.00;;;16.20;1.00;;;;;;4981074;28;20148;-87
2023/05/03 11:16:09;;;;;;;2.70;1.95;;;14.40;99.90;;;;;;4995975;28;20054;-87
2023/05/03 11:18:35;;;;;;;5.55;2.00;;;14.60;99.90;;;;;;4985406;28;20119;-88
2023/05/03 11:21:01;;;;;;;5.00;2.25;;;15.20;99.90;;;;;;4978990;28;20038;-87
2023/05/03 11:23:29;;;;;;;3.13;2.10;;;14.40;99.90;;;;;;4994108;28;20041;-87
2023/05/03 11:25:58;;;;;;;3.50;2.30;;;13.50;99.90;;;;;;4997603;28;20041;-87
2023/05/03 11:28:25;;;;;;;4.05;2.22;;;14.20;99.90;;;;;;5000091;28;20366;-87
2023/05/03 11:30:51;;;;;;;4.03;2.20;;;12.90;99.90;;;;;;4995428;28;20072;-87
2023/05/03 11:33:16;;;;;;;7.22;2.20;;;12.50;99.90;;;;;;4984300;28;20034;-86
2023/05/03 11:35:42;;;;;;;3.33;1.95;;;12.40;99.90;;;;;;4982282;28;20454;-87
2023/05/03 11:38:11;;;;;;;4.93;2.30;;;13.50;99.90;;;;;;4982133;28;20398;-87
2023/05/03 11:40:38;;;;;;;4.78;2.20;;;13.50;99.90;;;;;;4979608;28;20344;-87
2023/05/03 11:43:06;;;;;;;8.75;2.47;;;13.80;99.90;;;;;;4996163;28;20065;-88
2023/05/03 11:45:43;;;;;;;3.75;2.30;;;14.00;99.90;;;;;;4979763;28;20504;-87
2023/05/03 11:48:11;;;;;;;4.35;2.35;;;14.80;99.90;;;;;;4979517;28;20034;-87
2023/05/03 11:50:54;;;;;;;3.53;2.25;;;14.60;99.90;;;;;;4979806;28;20093;-87
2023/05/03 11:53:23;;;;;;;5.63;2.40;;;15.40;99.90;;;;;;4999346;28;20048;-87
2023/05/03 11:55:52;;;;;;;4.70;2.10;;;15.30;99.90;;;;;;4979782;28;20042;-87
2023/05/03 11:58:20;;;;;;;3.72;1.90;;;14.70;99.90;;;;;;4985083;28;20042;-87
2023/05/03 12:00:49;;;;;;;4.18;1.92;;;14.90;99.90;;;;;;4995099;28;20495;-87
2023/05/03 12:03:29;;;;;;;3.30;2.10;;;15.60;99.90;;;;;;4994984;28;20378;-88
2023/05/03 12:05:55;;;;;;;3.42;2.00;;;16.40;99.90;;;;;;4996068;28;20073;-88
2023/05/03 12:08:32;;;;;;;3.75;2.33;;;16.50;99.90;;;;;;4992929;28;20054;-87
2023/05/03 12:11:00;;;;;;;4.72;2.28;;;15.70;99.90;;;;;;4979216;28;20038;-88
2023/05/03 12:13:31;;;;;;;2.65;2.20;;;16.30;99.90;;;;;;4982987;28;20280;-87
2023/05/03 12:16:00;;;;;;;3.25;2.17;;;15.50;99.90;;;;;;4998823;28;20375;-86
2023/05/03 12:18:27;;;;;;;5.50;2.40;;;15.30;99.90;;;;;;4979848;28;20040;-86
2023/05/03 12:20:57;;;;;;;3.53;2.10;;;15.20;99.90;;;;;;4981058;28;20074;-87
2023/05/03 12:23:25;;;;;;;4.18;2.28;;;15.90;99.90;;;;;;4976235;28;20129;-87
2023/05/03 12:25:55;;;;;;;4.47;2.17;;;16.50;99.90;;;;;;4995844;28;20099;-87
2023/05/03 12:28:21;;;;;;;5.15;2.05;;;16.80;99.90;;;;;;4998076;28;20378;-86
2023/05/03 12:30:47;;;;;;;2.72;1.63;;;16.60;99.90;;;;;;4979263;28;20441;-87
2023/05/03 12:33:14;;;;;;;3.88;1.98;;;16.90;99.90;;;;;;4997406;28;20458;-88
2023/05/03 12:35:39;;;;;;;7.15;2.40;;;15.10;99.90;;;;;;4995385;28;20517;-87
2023/05/03 12:38:07;;;;;;;3.58;1.77;;;14.70;99.90;;;;;;4998667;28;20045;-87
2023/05/03 12:40:32;;;;;;;3.63;2.13;;;14.80;99.90;;;;;;4977569;28;20209;-87
2023/05/03 12:42:58;;;;;;;2.90;1.90;;;15.10;99.90;;;;;;4978628;28;20038;-87
2023/05/03 12:45:27;;;;;;;4.18;1.90;;;14.50;99.90;;;;;;4995256;28;20075;-87
2023/05/03 12:47:53;;;;;;;3.13;1.85;;;15.30;99.90;;;;;;4996942;28;20037;-86
2023/05/03 12:50:19;;;;;;;2.40;1.90;;;16.00;99.90;;;;;;4980438;28;20092;-87
2023/05/03 12:52:50;;;;;;;4.45;1.85;;;16.50;99.90;;;;;;4982345;28;20053;-86
2023/05/03 12:55:16;;;;;;;3.28;2.10;;;15.80;99.90;;;;;;5010663;28;20329;-87
2023/05/03 12:57:45;;;;;;;4.55;2.13;;;16.30;99.90;;;;;;4996108;28;20049;-87